createdAt,value
2023-02-13T00:01:58.650Z,101129.69
2023-02-13T00:04:26.948Z,101130.05
2023-02-13T00:06:55.126Z,101127.98
2023-02-13T00:09:23.491Z,101126.77
2023-02-13T00:11:51.682Z,101118.73
2023-02-13T00:14:19.800Z,101116.48
2023-02-13T00:16:48.041Z,101110.48
2023-02-13T00:19:16.772Z,101099.93
2023-02-13T00:21:45.020Z,101101.80
2023-02-13T00:24:13.366Z,101097.20
2023-02-13T00:26:41.619Z,101101.88
2023-02-13T00:29:10.000Z,101096.95
2023-02-13T00:31:39.532Z,101092.36
2023-02-13T00:34:08.505Z,101092.14
2023-02-13T00:36:36.692Z,101092.99
2023-02-13T00:39:04.951Z,101089.27
2023-02-13T00:41:33.286Z,101088.16
2023-02-13T00:44:01.599Z,101086.89
2023-02-13T00:46:31.383Z,101084.02
2023-02-13T00:48:59.673Z,101084.98
2023-02-13T00:51:27.859Z,101081.77
2023-02-13T00:53:56.546Z,101077.16
2023-02-13T00:56:24.796Z,101072.26
2023-02-13T00:58:53.021Z,101069.27
2023-02-13T01:01:21.315Z,101071.02
2023-02-13T01:03:49.591Z,101072.41
2023-02-13T01:06:17.832Z,101072.42
2023-02-13T01:08:46.074Z,101070.34
2023-02-13T01:11:14.201Z,101066.15
2023-02-13T01:13:42.530Z,101059.32
2023-02-13T01:16:10.857Z,101052.13
2023-02-13T01:18:39.308Z,101050.66
2023-02-13T01:21:09.017Z,101046.05
2023-02-13T01:23:38.032Z,101040.06
2023-02-13T01:26:09.004Z,101044.48
2023-02-13T01:28:37.276Z,101045.05
2023-02-13T01:31:06.173Z,101041.22
2023-02-13T01:33:36.283Z,101041.45
2023-02-13T01:36:09.322Z,101037.64
2023-02-13T01:38:39.166Z,101036.60
2023-02-13T01:41:08.650Z,101032.21
2023-02-13T01:43:45.092Z,101028.30
2023-02-13T01:46:16.473Z,101026.30
2023-02-13T01:48:45.148Z,101025.18
2023-02-13T01:51:16.757Z,101024.59
2023-02-13T01:53:50.260Z,101022.42
2023-02-13T01:56:28.965Z,101015.73
2023-02-13T01:59:00.750Z,101006.58
2023-02-13T02:01:30.789Z,101004.77
2023-02-13T02:04:05.591Z,101000.19
2023-02-13T02:06:43.188Z,101000.65
2023-02-13T02:09:17.010Z,101001.80
2023-02-13T02:12:03.941Z,100994.19
2023-02-13T02:14:32.092Z,100988.48
2023-02-13T02:17:00.399Z,100988.96
2023-02-13T02:19:31.699Z,100990.86
2023-02-13T02:22:09.239Z,100988.75
2023-02-13T02:24:52.889Z,100992.58
2023-02-13T02:27:34.556Z,100998.15
2023-02-13T02:30:02.753Z,100997.02
2023-02-13T02:32:30.993Z,100995.04
2023-02-13T02:35:18.244Z,100991.11
2023-02-13T02:37:58.717Z,100995.46
2023-02-13T02:40:42.731Z,100996.52
2023-02-13T02:43:24.730Z,100993.01
2023-02-13T02:45:57.694Z,100992.16
2023-02-13T02:48:49.945Z,100993.93
2023-02-13T02:51:25.118Z,100992.91
2023-02-13T02:53:57.547Z,100991.14
2023-02-13T02:56:31.653Z,100992.14
2023-02-13T02:59:24.241Z,100991.39
2023-02-13T03:02:13.380Z,100992.81
2023-02-13T03:05:03.032Z,100990.89
2023-02-13T03:07:32.351Z,100988.29
2023-02-13T03:10:21.576Z,100989.10
2023-02-13T03:13:23.258Z,100991.18
2023-02-13T03:16:11.966Z,100988.38
2023-02-13T03:19:01.837Z,100989.80
2023-02-13T03:22:03.752Z,100994.04
2023-02-13T03:24:34.766Z,101006.02
2023-02-13T03:27:47.954Z,101006.02
2023-02-13T03:30:16.295Z,101009.14
2023-02-13T03:32:56.927Z,101010.34
2023-02-13T03:36:02.911Z,101012.10
2023-02-13T03:38:37.459Z,101018.84
2023-02-13T03:41:21.358Z,101020.30
2023-02-13T03:44:09.879Z,101023.03
2023-02-13T03:46:40.058Z,101019.63
2023-02-13T03:49:30.309Z,101020.94
2023-02-13T03:52:11.277Z,101017.73
2023-02-13T03:55:03.716Z,101014.36
2023-02-13T03:57:52.038Z,101018.66
2023-02-13T04:00:21.053Z,101020.16
2023-02-13T04:03:09.179Z,101022.65
2023-02-13T04:05:41.113Z,101025.48
2023-02-13T04:08:09.381Z,101024.42
2023-02-13T04:10:44.716Z,101024.11
2023-02-13T04:13:19.640Z,101022.90
2023-02-13T04:16:02.038Z,101020.70
2023-02-13T04:18:32.625Z,101016.40
2023-02-13T04:21:05.131Z,101014.54
2023-02-13T04:23:34.063Z,101010.38
2023-02-13T04:26:09.428Z,101007.42
2023-02-13T04:28:37.653Z,101004.83
2023-02-13T04:31:06.152Z,101001.46
2023-02-13T04:33:35.830Z,101007.55
2023-02-13T04:36:04.151Z,101013.16
2023-02-13T04:38:32.490Z,101012.09
2023-02-13T04:41:00.727Z,101011.73
2023-02-13T04:43:28.938Z,101013.85
2023-02-13T04:45:57.440Z,101016.31
2023-02-13T04:48:25.632Z,101015.77
2023-02-13T04:50:53.825Z,101012.23
2023-02-13T04:53:22.623Z,101013.42
2023-02-13T04:55:51.716Z,101013.74
2023-02-13T04:58:19.994Z,101011.77
2023-02-13T05:00:48.264Z,101015.45
2023-02-13T05:03:17.628Z,101019.33
2023-02-13T05:05:45.919Z,101020.05
2023-02-13T05:08:14.152Z,101019.18
2023-02-13T05:13:55.456Z,101010.75
2023-02-13T05:16:23.779Z,101006.33
2023-02-13T05:18:55.022Z,101001.71
2023-02-13T05:21:42.088Z,101002.21
2023-02-13T05:24:10.280Z,101002.20
2023-02-13T05:26:38.572Z,101005.75
2023-02-13T05:29:18.764Z,101007.55
2023-02-13T05:33:28.877Z,101012.25
2023-02-13T05:35:57.188Z,101010.52
2023-02-13T05:38:25.543Z,101012.38
2023-02-13T05:40:53.811Z,101016.20
2023-02-13T05:43:22.228Z,101012.00
2023-02-13T05:45:52.434Z,101013.36
2023-02-13T05:48:20.859Z,101015.23
2023-02-13T05:50:49.339Z,101018.86
2023-02-13T05:53:18.151Z,101019.34
2023-02-13T05:55:46.994Z,101022.78
2023-02-13T05:58:15.368Z,101021.33
2023-02-13T06:00:43.721Z,101021.67
2023-02-13T06:03:12.246Z,101021.14
2023-02-13T06:05:40.660Z,101018.45
2023-02-13T06:08:09.071Z,101018.23
2023-02-13T06:10:37.444Z,101019.41
2023-02-13T06:13:05.933Z,101022.55
2023-02-13T06:15:34.309Z,101023.07
2023-02-13T06:18:02.607Z,101023.95
2023-02-13T06:20:30.933Z,101020.92
2023-02-13T06:22:59.582Z,101021.76
2023-02-13T06:25:28.066Z,101020.66
2023-02-13T06:27:56.474Z,101023.11
2023-02-13T06:30:25.056Z,101025.39
2023-02-13T06:32:53.403Z,101025.89
2023-02-13T06:35:21.741Z,101034.45
2023-02-13T06:37:50.106Z,101035.29
2023-02-13T06:40:19.041Z,101035.77
2023-02-13T06:42:47.396Z,101038.88
2023-02-13T06:45:15.885Z,101042.74
2023-02-13T06:47:47.421Z,101040.81
2023-02-13T06:50:17.267Z,101043.77
2023-02-13T06:52:51.108Z,101042.34
2023-02-13T06:55:20.910Z,101047.56
2023-02-13T06:57:49.490Z,101047.17
2023-02-13T07:00:19.467Z,101047.30
2023-02-13T07:02:48.420Z,101048.46
2023-02-13T07:05:17.071Z,101046.30
2023-02-13T07:07:45.408Z,101046.11
2023-02-13T07:10:14.987Z,101044.91
2023-02-13T07:12:44.621Z,101045.76
2023-02-13T07:15:14.206Z,101048.52
2023-02-13T07:17:42.545Z,101047.41
2023-02-13T07:20:11.397Z,101050.00
2023-02-13T07:22:39.735Z,101045.05
2023-02-13T07:25:08.341Z,101049.41
2023-02-13T07:27:36.771Z,101056.60
2023-02-13T07:30:05.967Z,101053.73
2023-02-13T07:32:34.386Z,101051.85
2023-02-13T07:35:03.055Z,101048.23
2023-02-13T07:37:32.077Z,101045.83
2023-02-13T07:40:00.602Z,101040.90
2023-02-13T07:42:28.976Z,101039.02
2023-02-13T07:44:57.299Z,101038.55
2023-02-13T07:47:25.555Z,101033.83
2023-02-13T07:49:55.096Z,101029.64
2023-02-13T07:52:23.453Z,101031.10
2023-02-13T07:54:51.731Z,101030.98
2023-02-13T07:57:20.031Z,101029.14
2023-02-13T07:59:48.327Z,101032.77
2023-02-13T08:02:17.170Z,101027.77
2023-02-13T08:04:46.501Z,101021.23
2023-02-13T08:07:17.639Z,101018.21
2023-02-13T08:10:05.261Z,101017.23
2023-02-13T08:12:36.097Z,101014.98
2023-02-13T08:15:05.764Z,101016.83
2023-02-13T08:17:34.103Z,101019.55
2023-02-13T08:20:02.425Z,101020.84
2023-02-13T08:22:30.850Z,101023.59
2023-02-13T08:24:59.152Z,101025.29
2023-02-13T08:27:30.419Z,101026.80
2023-02-13T08:30:00.027Z,101029.20
2023-02-13T08:32:28.332Z,101030.73
2023-02-13T08:34:56.743Z,101027.87
2023-02-13T08:37:25.224Z,101025.16
2023-02-13T08:39:53.555Z,101025.81
2023-02-13T08:42:21.895Z,101025.46
2023-02-13T08:44:50.362Z,101022.84
2023-02-13T08:47:18.694Z,101026.11
2023-02-13T08:49:47.029Z,101022.30
2023-02-13T08:52:15.387Z,101018.88
2023-02-13T08:54:43.813Z,101019.63
2023-02-13T08:57:12.171Z,101020.94
2023-02-13T08:59:40.764Z,101014.48
2023-02-13T09:02:12.100Z,101011.11
2023-02-13T09:04:40.834Z,101011.69
2023-02-13T09:07:09.152Z,101011.33
2023-02-13T09:09:37.542Z,101006.99
2023-02-13T09:12:06.066Z,100998.34
2023-02-13T09:14:34.849Z,100998.13
2023-02-13T09:17:03.424Z,101000.38
2023-02-13T09:19:31.890Z,100987.98
2023-02-13T09:22:00.311Z,100991.70
2023-02-13T09:24:28.613Z,100996.98
2023-02-13T09:26:57.099Z,101005.51
2023-02-13T09:29:25.674Z,101007.52
2023-02-13T09:31:54.925Z,101006.67
2023-02-13T09:34:23.328Z,101000.66
2023-02-13T09:36:53.924Z,100995.90
2023-02-13T09:39:22.226Z,100988.70
2023-02-13T09:41:53.593Z,100986.98
2023-02-13T09:44:37.804Z,100991.30
2023-02-13T09:47:28.595Z,100989.59
2023-02-13T09:50:14.216Z,100992.88
2023-02-13T09:52:46.049Z,100995.74
2023-02-13T09:55:22.129Z,100996.88
2023-02-13T09:58:09.352Z,100996.91
2023-02-13T10:00:42.959Z,100999.92
2023-02-13T10:03:34.135Z,101001.73
2023-02-13T10:06:21.953Z,100999.66
2023-02-13T10:09:03.569Z,100992.96
2023-02-13T10:11:50.176Z,100990.98
2023-02-13T10:14:32.905Z,100990.16
2023-02-13T10:17:12.619Z,100983.21
2023-02-13T10:19:46.290Z,100975.77
2023-02-13T10:22:20.581Z,100966.48
2023-02-13T10:24:55.540Z,100961.48
2023-02-13T10:27:27.649Z,100958.20
2023-02-13T10:30:09.545Z,100952.86
2023-02-13T10:32:49.571Z,100951.34
2023-02-13T10:35:30.942Z,100948.17
2023-02-13T10:38:00.205Z,100940.02
2023-02-13T10:40:38.369Z,100937.24
2023-02-13T10:43:09.639Z,100933.20
2023-02-13T10:46:08.667Z,100931.27
2023-02-13T10:48:39.948Z,100934.20
2023-02-13T10:51:20.036Z,100934.31
2023-02-13T10:54:22.213Z,100931.65
2023-02-13T10:56:56.670Z,100925.52
2023-02-13T11:00:01.339Z,100917.14
2023-02-13T11:02:36.990Z,100917.67
2023-02-13T11:05:18.657Z,100917.80
2023-02-13T11:07:49.996Z,100912.86
2023-02-13T11:10:22.448Z,100910.09
2023-02-13T11:12:51.816Z,100906.73
2023-02-13T11:15:26.252Z,100899.94
2023-02-13T11:17:58.803Z,100895.73
2023-02-13T11:20:39.144Z,100895.45
2023-02-13T11:23:26.724Z,100892.32
2023-02-13T11:26:10.189Z,100890.33
2023-02-13T11:28:54.137Z,100886.45
2023-02-13T11:31:33.307Z,100890.93
2023-02-13T11:34:22.779Z,100896.06
2023-02-13T11:37:19.504Z,100897.02
2023-02-13T11:39:51.592Z,100900.98
2023-02-13T11:42:28.801Z,100896.73
2023-02-13T11:45:07.633Z,100903.27
2023-02-13T11:47:41.456Z,100905.70
2023-02-13T11:50:26.604Z,100906.92
2023-02-13T11:53:42.998Z,100907.27
2023-02-13T11:56:13.008Z,100905.48
2023-02-13T11:58:42.653Z,100905.52
2023-02-13T12:01:26.814Z,100916.08
2023-02-13T12:04:08.242Z,100921.41
2023-02-13T12:06:42.613Z,100919.32
2023-02-13T12:09:15.939Z,100923.34
2023-02-13T12:11:48.789Z,100922.14
2023-02-13T12:14:22.533Z,100919.21
2023-02-13T12:17:00.120Z,100913.80
2023-02-13T12:19:44.144Z,100912.58
2023-02-13T12:22:24.025Z,100908.95
2023-02-13T12:25:01.691Z,100907.77
2023-02-13T12:27:45.402Z,100902.74
2023-02-13T12:30:40.929Z,100898.85
2023-02-13T12:33:41.729Z,100904.17
2023-02-13T12:36:21.952Z,100902.91
2023-02-13T12:39:21.269Z,100904.91
2023-02-13T12:41:50.436Z,100905.21
2023-02-13T12:44:41.850Z,100904.43
2023-02-13T12:47:16.626Z,100899.76
2023-02-13T12:49:54.516Z,100893.61
2023-02-13T12:52:35.288Z,100890.27
2023-02-13T12:55:28.874Z,100889.27
2023-02-13T12:58:03.519Z,100886.96
2023-02-13T13:00:31.989Z,100886.77
2023-02-13T13:03:22.971Z,100885.73
2023-02-13T13:06:24.192Z,100889.92
2023-02-13T13:09:12.059Z,100891.23
2023-02-13T13:11:49.724Z,100888.84
2023-02-13T13:14:38.042Z,100884.59
2023-02-13T13:17:26.183Z,100884.23
2023-02-13T13:20:00.650Z,100889.35
2023-02-13T13:23:19.304Z,100889.02
2023-02-13T13:25:59.688Z,100889.09
2023-02-13T13:28:45.283Z,100884.77
2023-02-13T13:31:17.030Z,100882.51
2023-02-13T13:33:51.259Z,100880.24
2023-02-13T13:36:58.823Z,100878.38
2023-02-13T13:39:49.624Z,100877.44
2023-02-13T13:43:04.764Z,100878.56
2023-02-13T13:46:18.622Z,100873.50
2023-02-13T13:49:10.333Z,100871.81
2023-02-13T13:51:39.113Z,100872.89
2023-02-13T13:54:11.535Z,100872.85
2023-02-13T13:57:06.857Z,100868.53
2023-02-13T13:59:43.321Z,100864.35
2023-02-13T14:02:23.569Z,100859.35
2023-02-13T14:05:25.073Z,100857.00
2023-02-13T14:07:59.138Z,100851.88
2023-02-13T14:10:30.812Z,100849.13
2023-02-13T14:16:52.395Z,100843.17
2023-02-13T14:19:15.041Z,100842.98
2023-02-13T14:21:50.333Z,100839.65
2023-02-13T14:24:29.162Z,100841.91
2023-02-13T14:27:05.537Z,100841.80
2023-02-13T14:29:35.715Z,100837.45
2023-02-13T14:32:18.118Z,100844.96
2023-02-13T14:34:58.998Z,100838.10
2023-02-13T14:37:36.994Z,100835.36
2023-02-13T14:40:15.581Z,100825.01
2023-02-13T14:42:52.566Z,100818.69
2023-02-13T14:46:40.855Z,100813.66
2023-02-13T14:49:18.497Z,100811.47
2023-02-13T14:52:18.937Z,100807.58
2023-02-13T14:55:02.668Z,100797.77
2023-02-13T14:57:48.892Z,100792.00
2023-02-13T15:00:39.468Z,100786.73
2023-02-13T15:03:29.543Z,100788.35
2023-02-13T15:06:06.567Z,100786.95
2023-02-13T15:08:52.416Z,100785.38
2023-02-13T15:11:43.313Z,100789.34
2023-02-13T15:14:30.782Z,100785.52
2023-02-13T15:17:24.332Z,100782.86
2023-02-13T15:20:05.102Z,100795.24
2023-02-13T15:22:37.748Z,100790.52
2023-02-13T15:25:09.616Z,100785.42
2023-02-13T15:27:44.933Z,100788.98
2023-02-13T15:30:24.113Z,100792.41
2023-02-13T15:32:59.168Z,100793.58
2023-02-13T15:35:29.914Z,100788.11
2023-02-13T15:37:59.982Z,100786.48
2023-02-13T15:40:33.672Z,100785.02
2023-02-13T15:43:02.430Z,100780.56
2023-02-13T15:45:31.164Z,100783.14
2023-02-13T15:47:59.690Z,100783.98
2023-02-13T15:50:36.187Z,100777.11
2023-02-13T15:53:10.214Z,100778.67
2023-02-13T15:55:38.536Z,100779.55
2023-02-13T15:58:14.496Z,100780.19
2023-02-13T16:00:43.710Z,100785.48
2023-02-13T16:03:17.256Z,100794.00
2023-02-13T16:05:47.358Z,100798.41
2023-02-13T16:08:29.335Z,100798.31
2023-02-13T16:11:16.305Z,100797.16
2023-02-13T16:14:16.014Z,100804.36
2023-02-13T16:16:55.653Z,100808.48
2023-02-13T16:19:53.039Z,100810.14
2023-02-13T16:22:44.141Z,100803.76
2023-02-13T16:25:12.520Z,100810.32
2023-02-13T16:27:43.858Z,100818.22
2023-02-13T16:30:33.931Z,100821.89
2023-02-13T16:33:42.574Z,100822.41
2023-02-13T16:36:11.008Z,100824.31
2023-02-13T16:38:46.571Z,100828.23
2023-02-13T16:41:17.754Z,100830.02
2023-02-13T16:43:47.490Z,100834.11
2023-02-13T16:46:18.023Z,100826.23
2023-02-13T16:49:01.717Z,100819.66
2023-02-13T16:51:30.078Z,100819.77
2023-02-13T16:54:13.198Z,100820.64
2023-02-13T16:57:14.803Z,100808.52
2023-02-13T16:59:53.180Z,100801.85
2023-02-13T17:02:25.904Z,100806.64
2023-02-13T17:04:59.531Z,100796.10
2023-02-13T17:07:30.899Z,100791.84
2023-02-13T17:10:20.600Z,100799.66
2023-02-13T17:12:51.235Z,100795.13
2023-02-13T17:15:31.360Z,100802.10
2023-02-13T17:18:00.305Z,100803.15
2023-02-13T17:20:31.984Z,100801.88
2023-02-13T17:23:02.775Z,100799.16
2023-02-13T17:25:34.620Z,100794.25
2023-02-13T17:28:21.318Z,100796.92
2023-02-13T17:30:53.213Z,100802.56
2023-02-13T17:33:30.740Z,100793.18
2023-02-13T17:35:59.549Z,100799.07
2023-02-13T17:38:28.123Z,100798.14
2023-02-13T17:40:57.072Z,100788.98
2023-02-13T17:43:28.011Z,100785.52
2023-02-13T17:45:56.683Z,100793.16
2023-02-13T17:48:25.121Z,100802.95
2023-02-13T17:50:53.590Z,100812.92
2023-02-13T17:53:27.787Z,100809.76
2023-02-13T17:55:56.694Z,100805.64
2023-02-13T17:58:25.133Z,100806.39
2023-02-13T18:00:53.851Z,100815.34
2023-02-13T18:03:24.085Z,100827.67
2023-02-13T18:05:52.588Z,100833.55
2023-02-13T18:08:21.207Z,100830.08
2023-02-13T18:10:50.029Z,100827.31
2023-02-13T18:13:18.435Z,100820.51
2023-02-13T18:15:46.882Z,100817.80
2023-02-13T18:18:16.373Z,100819.37
2023-02-13T18:20:45.110Z,100828.01
2023-02-13T18:23:14.524Z,100828.35
2023-02-13T18:25:44.936Z,100819.64
2023-02-13T18:28:16.335Z,100827.61
2023-02-13T18:30:48.309Z,100838.70
2023-02-13T18:33:16.913Z,100842.69
2023-02-13T18:35:45.482Z,100841.62
2023-02-13T18:38:30.953Z,100846.56
2023-02-13T18:40:59.809Z,100855.78
2023-02-13T18:43:32.562Z,100854.03
2023-02-13T18:46:03.512Z,100844.91
2023-02-13T18:48:37.381Z,100845.64
2023-02-13T18:51:06.076Z,100853.91
2023-02-13T18:53:35.627Z,100858.78
2023-02-13T18:56:06.890Z,100861.10
2023-02-13T18:58:35.556Z,100861.00
2023-02-13T19:01:16.432Z,100868.79
2023-02-13T19:03:49.127Z,100882.55
2023-02-13T19:06:21.085Z,100896.20
2023-02-13T19:08:50.259Z,100898.08
2023-02-13T19:11:24.065Z,100892.11
2023-02-13T19:13:59.005Z,100897.13
2023-02-13T19:16:33.869Z,100902.80
2023-02-13T19:19:07.151Z,100906.14
2023-02-13T19:21:38.644Z,100901.34
2023-02-13T19:24:15.589Z,100898.86
2023-02-13T19:26:45.455Z,100902.70
2023-02-13T19:29:17.918Z,100904.48
2023-02-13T19:31:48.681Z,100897.18
2023-02-13T19:34:18.438Z,100892.86
2023-02-13T19:36:47.697Z,100893.95
2023-02-13T19:39:24.916Z,100898.36
2023-02-13T19:41:58.886Z,100893.98
2023-02-13T19:44:27.378Z,100885.55
2023-02-13T19:46:56.031Z,100879.59
2023-02-13T19:49:24.481Z,100881.23
2023-02-13T19:51:52.922Z,100893.75
2023-02-13T19:54:21.327Z,100888.31
2023-02-13T19:56:49.748Z,100887.27
2023-02-13T19:59:18.198Z,100890.42
2023-02-13T20:01:46.890Z,100893.61
2023-02-13T20:04:26.297Z,100899.95
2023-02-13T20:07:06.510Z,100905.95
2023-02-13T20:09:38.648Z,100906.69
2023-02-13T20:12:07.784Z,100907.55
2023-02-13T20:14:38.405Z,100908.02
2023-02-13T20:17:09.002Z,100908.17
2023-02-13T20:19:38.548Z,100911.00
2023-02-13T20:22:06.858Z,100914.17
2023-02-13T20:24:35.453Z,100916.14
2023-02-13T20:27:04.040Z,100922.14
2023-02-13T20:29:38.433Z,100921.44
2023-02-13T20:32:07.694Z,100921.45
2023-02-13T20:34:44.275Z,100925.11
2023-02-13T20:37:35.212Z,100923.34
2023-02-13T20:40:03.718Z,100919.85
2023-02-13T20:42:36.138Z,100928.34
2023-02-13T20:45:05.196Z,100927.11
2023-02-13T20:47:34.249Z,100916.94
2023-02-13T20:50:02.642Z,100907.61
2023-02-13T20:52:40.858Z,100902.70
2023-02-13T20:55:29.572Z,100907.48
2023-02-13T20:58:06.235Z,100913.29
2023-02-13T21:00:34.709Z,100918.19
2023-02-13T21:03:11.026Z,100908.69
2023-02-13T21:05:40.556Z,100900.06
2023-02-13T21:08:09.020Z,100891.45
2023-02-13T21:10:38.803Z,100885.19
2023-02-13T21:13:07.534Z,100884.71
2023-02-13T21:15:36.733Z,100887.58
2023-02-13T21:18:05.654Z,100892.52
2023-02-13T21:20:34.069Z,100890.73
2023-02-13T21:23:03.082Z,100882.80
2023-02-13T21:25:32.571Z,100886.15
2023-02-13T21:28:01.044Z,100898.48
2023-02-13T21:30:29.573Z,100897.98
2023-02-13T21:32:57.951Z,100900.95
2023-02-13T21:35:42.460Z,100899.52
2023-02-13T21:38:19.676Z,100898.09
2023-02-13T21:40:48.047Z,100897.39
2023-02-13T21:43:16.426Z,100892.14
2023-02-13T21:45:44.807Z,100898.30
2023-02-13T21:48:13.327Z,100898.61
2023-02-13T21:50:41.921Z,100898.27
2023-02-13T21:53:10.376Z,100897.72
2023-02-13T21:55:38.732Z,100896.52
2023-02-13T21:58:07.065Z,100903.25
2023-02-13T22:00:35.444Z,100904.86
2023-02-13T22:03:03.968Z,100899.58
2023-02-13T22:05:32.552Z,100899.04
2023-02-13T22:08:12.584Z,100902.89
2023-02-13T22:10:41.058Z,100902.86
2023-02-13T22:13:09.562Z,100904.30
2023-02-13T22:15:37.924Z,100902.20
2023-02-13T22:18:06.307Z,100904.09
2023-02-13T22:20:35.673Z,100900.88
2023-02-13T22:23:04.088Z,100907.94
2023-02-13T22:25:32.423Z,100906.73
2023-02-13T22:28:00.780Z,100906.23
2023-02-13T22:30:29.349Z,100906.98
2023-02-13T22:32:59.311Z,100911.52
2023-02-13T22:35:27.616Z,100909.77
2023-02-13T22:37:55.908Z,100907.98
2023-02-13T22:40:24.477Z,100906.25
2023-02-13T22:42:52.812Z,100901.52
2023-02-13T22:45:21.149Z,100890.48
2023-02-13T22:47:58.457Z,100885.21
2023-02-13T22:50:27.422Z,100887.86
2023-02-13T22:52:55.819Z,100877.66
2023-02-13T22:55:24.323Z,100875.91
2023-02-13T22:57:56.464Z,100877.20
2023-02-13T23:00:24.877Z,100878.98
2023-02-13T23:02:53.224Z,100877.40
2023-02-13T23:05:21.585Z,100878.44
2023-02-13T23:07:50.141Z,100876.69
2023-02-13T23:10:19.343Z,100875.13
2023-02-13T23:12:50.089Z,100874.05
2023-02-13T23:15:18.656Z,100869.67
2023-02-13T23:18:05.766Z,100866.66
2023-02-13T23:20:34.235Z,100868.02
2023-02-13T23:23:04.742Z,100862.54
2023-02-13T23:25:34.964Z,100860.21
2023-02-13T23:28:04.169Z,100856.56
2023-02-13T23:30:33.161Z,100853.06
2023-02-13T23:33:02.235Z,100852.13
2023-02-13T23:35:30.604Z,100852.27
2023-02-13T23:37:58.937Z,100846.64
2023-02-13T23:40:27.268Z,100846.63
2023-02-13T23:42:55.708Z,100845.61
2023-02-13T23:45:23.984Z,100842.27
2023-02-13T23:47:52.323Z,100836.98
2023-02-13T23:50:20.777Z,100833.25
2023-02-13T23:52:49.144Z,100833.23
2023-02-13T23:55:17.527Z,100833.63
2023-02-13T23:57:46.238Z,100832.59
